createdAt,value
2018-10-17T00:01:13.381Z,7.89
2018-10-17T00:07:15.513Z,7.94
2018-10-17T00:15:02.163Z,7.94
2018-10-17T00:24:21.902Z,7.74
2018-10-17T00:29:34.724Z,7.70
2018-10-17T00:30:34.494Z,7.81
2018-10-17T00:35:18.990Z,7.88
2018-10-17T00:59:29.125Z,7.92
2018-10-17T01:02:58.454Z,7.86
2018-10-17T01:18:11.432Z,7.91
2018-10-17T01:26:22.763Z,7.88
2018-10-17T01:29:47.102Z,7.73
2018-10-17T01:33:04.249Z,7.81
2018-10-17T01:53:08.498Z,7.44
2018-10-17T01:58:09.936Z,7.45
2018-10-17T01:59:09.707Z,7.52
2018-10-17T02:00:09.786Z,7.57
2018-10-17T02:01:09.624Z,7.57
2018-10-17T02:02:09.614Z,7.63
2018-10-17T02:06:29.121Z,7.58
2018-10-17T02:18:33.080Z,7.48
2018-10-17T02:23:32.859Z,7.48
2018-10-17T02:24:32.714Z,7.45
2018-10-17T02:25:32.677Z,7.42
2018-10-17T02:26:32.739Z,7.45
2018-10-17T02:27:32.615Z,7.51
2018-10-17T02:39:45.289Z,7.24
2018-10-17T02:40:45.046Z,7.19
2018-10-17T02:46:00.343Z,7.27
2018-10-17T02:58:27.166Z,7.21
2018-10-17T02:59:26.958Z,7.08
2018-10-17T03:00:26.964Z,7.05
2018-10-17T03:01:26.876Z,7.12
2018-10-17T03:02:26.835Z,7.04
2018-10-17T03:03:26.826Z,6.96
2018-10-17T03:04:26.797Z,6.97
2018-10-17T03:05:26.818Z,7.00
2018-10-17T03:06:26.839Z,6.97
2018-10-17T03:07:26.784Z,7.04
2018-10-17T03:31:30.642Z,6.93
2018-10-17T03:44:54.918Z,6.90
2018-10-17T04:00:34.379Z,6.78
2018-10-17T04:01:34.367Z,6.82
2018-10-17T04:02:34.348Z,6.81
2018-10-17T04:03:34.338Z,6.81
2018-10-17T04:04:34.330Z,6.83
2018-10-17T04:05:34.317Z,6.82
2018-10-17T04:06:34.311Z,6.87
2018-10-17T04:07:34.300Z,6.72
2018-10-17T04:08:34.286Z,6.81
2018-10-17T04:09:34.277Z,6.83
2018-10-17T04:10:34.258Z,6.73
2018-10-17T04:11:34.256Z,6.71
2018-10-17T04:12:34.237Z,6.71
2018-10-17T04:13:34.223Z,6.75
2018-10-17T04:14:34.210Z,6.63
2018-10-17T04:15:34.197Z,6.68
2018-10-17T04:16:34.198Z,6.60
2018-10-17T04:17:34.174Z,6.58
2018-10-17T04:18:34.164Z,6.63
2018-10-17T04:19:34.155Z,6.61
2018-10-17T04:20:34.146Z,6.60
2018-10-17T04:21:34.145Z,6.64
2018-10-17T04:22:34.126Z,6.58
2018-10-17T04:23:34.110Z,6.63
2018-10-17T04:24:34.101Z,6.65
2018-10-17T04:25:34.088Z,6.61
2018-10-17T04:26:34.084Z,6.65
2018-10-17T04:27:34.075Z,6.55
2018-10-17T04:28:34.056Z,6.54
2018-10-17T04:29:34.043Z,6.58
2018-10-17T04:30:34.031Z,6.57
2018-10-17T04:31:34.027Z,6.60
2018-10-17T04:32:34.009Z,6.61
2018-10-17T04:33:33.998Z,6.58
2018-10-17T04:34:33.987Z,6.58
2018-10-17T04:35:33.974Z,6.63
2018-10-17T04:36:33.970Z,6.50
2018-10-17T04:37:33.952Z,6.51
2018-10-17T04:38:33.951Z,6.53
2018-10-17T04:39:33.928Z,6.42
2018-10-17T04:40:33.917Z,6.39
2018-10-17T04:41:33.973Z,6.39
2018-10-17T04:42:33.895Z,6.43
2018-10-17T04:43:34.013Z,6.46
2018-10-17T04:44:33.876Z,6.51
2018-10-17T04:45:33.861Z,6.51
2018-10-17T04:46:33.848Z,6.58
2018-10-17T04:47:33.928Z,6.53
2018-10-17T04:48:33.828Z,6.55
2018-10-17T04:49:33.824Z,6.51
2018-10-17T04:50:33.809Z,6.58
2018-10-17T04:51:33.794Z,6.54
2018-10-17T04:52:33.796Z,6.61
2018-10-17T04:53:33.770Z,6.58
2018-10-17T04:54:33.757Z,6.61
2018-10-17T04:55:33.746Z,6.60
2018-10-17T04:56:33.738Z,6.55
2018-10-17T04:57:33.737Z,6.58
2018-10-17T04:58:33.717Z,6.64
2018-10-17T04:59:33.701Z,6.60
2018-10-17T05:00:33.691Z,6.60
2018-10-17T05:01:33.679Z,6.57
2018-10-17T05:02:33.679Z,6.58
2018-10-17T05:03:33.655Z,6.69
2018-10-17T05:04:33.707Z,6.64
2018-10-17T05:05:33.633Z,6.68
2018-10-17T05:06:33.621Z,6.60
2018-10-17T05:07:33.637Z,6.64
2018-10-17T05:08:33.601Z,6.63
2018-10-17T05:09:33.589Z,6.55
2018-10-17T05:10:33.576Z,6.60
2018-10-17T05:11:33.565Z,6.57
2018-10-17T05:12:33.573Z,6.58
2018-10-17T05:13:33.548Z,6.53
2018-10-17T05:14:33.533Z,6.61
2018-10-17T05:15:33.521Z,6.50
2018-10-17T05:16:33.508Z,6.48
2018-10-17T05:17:33.509Z,6.48
2018-10-17T05:18:33.485Z,6.61
2018-10-17T05:19:33.473Z,6.51
2018-10-17T05:20:33.464Z,6.58
2018-10-17T05:21:33.451Z,6.60
2018-10-17T05:22:33.451Z,6.55
2018-10-17T05:23:33.432Z,6.58
2018-10-17T05:24:33.433Z,6.61
2018-10-17T05:25:33.412Z,6.63
2018-10-17T05:26:33.399Z,6.63
2018-10-17T05:27:33.401Z,6.61
2018-10-17T05:28:33.377Z,6.57
2018-10-17T05:29:33.370Z,6.57
2018-10-17T05:30:33.353Z,6.54
2018-10-17T05:31:33.342Z,6.64
2018-10-17T05:32:33.342Z,6.58
2018-10-17T05:33:33.321Z,6.61
2018-10-17T05:34:33.314Z,6.58
2018-10-17T05:35:33.297Z,6.60
2018-10-17T05:36:33.285Z,6.61
2018-10-17T05:37:33.380Z,6.61
2018-10-17T05:38:33.266Z,6.57
2018-10-17T05:39:33.283Z,6.61
2018-10-17T05:40:33.256Z,6.57
2018-10-17T05:41:33.248Z,6.68
2018-10-17T05:42:33.257Z,6.64
2018-10-17T05:43:33.216Z,6.58
2018-10-17T05:44:33.305Z,6.61
2018-10-17T05:45:33.195Z,6.60
2018-10-17T05:46:33.184Z,6.63
2018-10-17T05:47:33.196Z,6.71
2018-10-17T05:48:33.157Z,6.68
2018-10-17T05:49:33.158Z,6.54
2018-10-17T05:50:33.141Z,6.69
2018-10-17T05:51:33.127Z,6.72
2018-10-17T05:52:33.159Z,6.75
2018-10-17T05:53:33.104Z,6.76
2018-10-17T05:54:33.106Z,6.76
2018-10-17T05:55:33.142Z,6.69
2018-10-17T05:56:33.063Z,6.79
2018-10-17T05:57:33.084Z,6.81
2018-10-17T05:58:33.069Z,6.72
2018-10-17T05:59:33.037Z,6.79
2018-10-17T06:00:33.025Z,6.87
2018-10-17T06:01:33.103Z,6.79
2018-10-17T06:02:33.051Z,6.79
2018-10-17T06:03:32.987Z,6.82
2018-10-17T06:04:32.987Z,6.79
2018-10-17T06:05:32.974Z,6.83
2018-10-17T06:06:32.961Z,6.87
2018-10-17T06:07:32.970Z,6.83
2018-10-17T06:08:32.946Z,6.83
2018-10-17T06:09:32.929Z,6.91
2018-10-17T06:10:32.912Z,6.89
2018-10-17T06:11:32.911Z,6.99
2018-10-17T06:12:32.909Z,6.93
2018-10-17T06:13:32.877Z,6.96
2018-10-17T06:14:32.871Z,7.12
2018-10-17T06:15:32.863Z,7.08
2018-10-17T06:16:32.863Z,7.07
2018-10-17T06:17:32.863Z,7.00
2018-10-17T06:18:32.825Z,7.12
2018-10-17T06:19:32.813Z,7.15
2018-10-17T06:20:32.802Z,7.11
2018-10-17T06:21:32.799Z,7.19
2018-10-17T06:22:32.808Z,7.19
2018-10-17T06:23:32.768Z,7.26
2018-10-17T06:24:32.765Z,7.24
2018-10-17T06:25:32.750Z,7.30
2018-10-17T06:26:32.748Z,7.23
2018-10-17T06:27:32.745Z,7.27
2018-10-17T06:28:32.730Z,7.30
2018-10-17T06:29:32.704Z,7.39
2018-10-17T06:30:32.729Z,7.44
2018-10-17T06:31:32.702Z,7.42
2018-10-17T06:32:32.694Z,7.42
2018-10-17T06:33:32.658Z,7.41
2018-10-17T06:34:32.676Z,7.47
2018-10-17T06:35:32.637Z,7.42
2018-10-17T06:36:32.637Z,7.45
2018-10-17T06:37:32.630Z,7.50
2018-10-17T06:38:32.614Z,7.50
2018-10-17T06:39:32.594Z,7.48
2018-10-17T06:40:32.588Z,7.44
2018-10-17T06:41:32.569Z,7.44
2018-10-17T06:42:32.588Z,7.44
2018-10-17T06:43:32.650Z,7.45
2018-10-17T06:44:32.542Z,7.44
2018-10-17T06:45:32.628Z,7.55
2018-10-17T06:46:32.525Z,7.57
2018-10-17T06:47:32.569Z,7.57
2018-10-17T06:48:32.493Z,7.73
2018-10-17T06:49:32.494Z,7.67
2018-10-17T06:50:32.466Z,7.74
2018-10-17T06:51:32.450Z,7.79
2018-10-17T06:52:32.439Z,7.74
2018-10-17T06:53:32.452Z,7.81
2018-10-17T06:54:32.550Z,7.70
2018-10-17T06:55:32.417Z,7.79
2018-10-17T06:56:32.413Z,7.82
2018-10-17T06:57:32.395Z,7.94
2018-10-17T06:58:32.448Z,7.79
2018-10-17T06:59:32.376Z,7.81
2018-10-17T07:00:32.348Z,7.86
2018-10-17T07:01:32.359Z,7.95
2018-10-17T07:02:32.329Z,7.99
2018-10-17T07:03:32.330Z,7.96
2018-10-17T07:04:32.311Z,7.95
2018-10-17T07:05:32.301Z,7.99
2018-10-17T07:06:32.287Z,8.10
2018-10-17T07:07:32.274Z,8.07
2018-10-17T07:08:32.345Z,8.09
2018-10-17T07:09:32.269Z,8.02
2018-10-17T07:10:32.242Z,8.14
2018-10-17T07:11:32.235Z,8.18
2018-10-17T07:12:32.220Z,8.21
2018-10-17T07:13:32.241Z,8.25
2018-10-17T07:14:32.202Z,8.25
2018-10-17T07:15:32.320Z,8.27
2018-10-17T07:16:32.174Z,8.29
2018-10-17T07:17:32.171Z,8.24
2018-10-17T07:18:32.192Z,8.34
2018-10-17T07:19:32.149Z,8.29
2018-10-17T07:20:32.145Z,8.36
2018-10-17T07:21:32.130Z,8.37
2018-10-17T07:22:32.111Z,8.39
2018-10-17T07:23:32.128Z,8.39
2018-10-17T07:24:32.089Z,8.42
2018-10-17T07:25:32.076Z,8.49
2018-10-17T07:26:32.065Z,8.55
2018-10-17T07:27:32.046Z,8.55
2018-10-17T07:28:32.081Z,8.61
2018-10-17T07:29:32.081Z,8.70
2018-10-17T07:30:32.016Z,8.71
2018-10-17T07:31:32.006Z,8.75
2018-10-17T07:32:31.993Z,8.71
2018-10-17T07:33:32.007Z,8.82
2018-10-17T07:34:31.975Z,8.85
2018-10-17T07:35:31.958Z,8.89
2018-10-17T07:36:31.944Z,8.91
2018-10-17T07:37:31.933Z,9.01
2018-10-17T07:38:31.938Z,8.94
2018-10-17T07:39:31.910Z,9.03
2018-10-17T07:40:31.943Z,9.10
2018-10-17T07:41:31.887Z,9.06
2018-10-17T07:42:31.876Z,9.13
2018-10-17T07:43:31.878Z,9.22
2018-10-17T07:44:31.858Z,9.23
2018-10-17T07:45:31.886Z,9.31
2018-10-17T07:46:31.837Z,9.30
2018-10-17T07:47:31.819Z,9.27
2018-10-17T07:48:31.824Z,9.32
2018-10-17T07:49:31.861Z,9.38
2018-10-17T07:50:31.787Z,9.40
2018-10-17T07:51:31.778Z,9.42
2018-10-17T07:52:31.767Z,9.45
2018-10-17T07:53:31.816Z,9.53
2018-10-17T07:54:31.744Z,9.49
2018-10-17T07:55:31.737Z,9.50
2018-10-17T07:56:31.721Z,9.55
2018-10-17T07:57:31.711Z,9.56
2018-10-17T07:58:31.711Z,9.67
2018-10-17T07:59:31.735Z,9.83
2018-10-17T08:00:31.711Z,9.81
2018-10-17T08:01:31.661Z,9.78
2018-10-17T08:02:31.657Z,9.89
2018-10-17T08:03:31.654Z,9.96
2018-10-17T08:04:31.630Z,10.04
2018-10-17T08:05:31.622Z,10.01
2018-10-17T08:06:31.666Z,10.16
2018-10-17T08:07:31.601Z,10.11
2018-10-17T08:08:31.877Z,10.24
2018-10-17T08:09:31.577Z,10.35
2018-10-17T08:10:31.569Z,10.34
2018-10-17T08:11:31.555Z,10.43
2018-10-17T08:12:31.545Z,10.51
2018-10-17T08:13:31.549Z,10.55
2018-10-17T08:14:31.521Z,10.62
2018-10-17T08:15:31.510Z,10.68
2018-10-17T08:16:31.498Z,10.66
2018-10-17T08:17:31.492Z,10.75
2018-10-17T08:18:31.493Z,10.84
2018-10-17T08:19:31.469Z,10.95
2018-10-17T08:20:31.460Z,11.11
2018-10-17T08:21:31.506Z,11.31
2018-10-17T08:22:31.424Z,11.44
2018-10-17T08:23:31.435Z,11.46
2018-10-17T08:24:31.411Z,11.49
2018-10-17T08:25:31.400Z,11.59
2018-10-17T08:26:31.394Z,11.66
2018-10-17T08:27:31.471Z,11.57
2018-10-17T08:28:31.379Z,11.56
2018-10-17T08:29:31.354Z,11.56
2018-10-17T08:30:31.344Z,11.62
2018-10-17T08:31:31.334Z,11.67
2018-10-17T08:32:31.320Z,11.60
2018-10-17T08:33:31.327Z,11.62
2018-10-17T08:34:31.301Z,11.62
2018-10-17T08:35:31.381Z,11.62
2018-10-17T08:36:31.482Z,11.62
2018-10-17T08:37:31.737Z,11.62
2018-10-17T08:38:31.265Z,11.66
2018-10-17T08:39:31.246Z,11.59
2018-10-17T08:40:31.234Z,11.62
2018-10-17T08:41:31.223Z,11.60
2018-10-17T08:42:31.219Z,11.64
2018-10-17T08:43:31.212Z,11.63
2018-10-17T08:44:31.190Z,11.75
2018-10-17T08:45:31.177Z,11.72
2018-10-17T08:46:31.166Z,11.66
2018-10-17T08:47:31.156Z,11.74
2018-10-17T08:48:31.155Z,11.66
2018-10-17T08:49:31.136Z,11.79
2018-10-17T08:50:31.153Z,11.72
2018-10-17T08:51:31.121Z,11.94
2018-10-17T08:52:31.103Z,11.84
2018-10-17T08:53:31.099Z,11.84
2018-10-17T08:54:31.080Z,11.97
2018-10-17T08:55:31.068Z,11.94
2018-10-17T08:56:31.061Z,11.98
2018-10-17T08:57:31.048Z,12.03
2018-10-17T08:58:31.047Z,12.01
2018-10-17T08:59:31.036Z,12.03
2018-10-17T09:00:31.013Z,12.12
2018-10-17T09:01:31.000Z,12.15
2018-10-17T09:02:30.989Z,12.19
2018-10-17T09:03:30.981Z,12.21
2018-10-17T09:04:30.982Z,12.31
2018-10-17T09:05:30.959Z,12.34
2018-10-17T09:06:30.943Z,12.48
2018-10-17T09:07:30.957Z,12.54
2018-10-17T09:08:30.930Z,12.46
2018-10-17T09:09:30.925Z,12.76
2018-10-17T09:10:30.903Z,12.79
2018-10-17T09:11:30.891Z,12.77
2018-10-17T09:12:30.875Z,12.85
2018-10-17T09:13:31.003Z,12.87
2018-10-17T09:14:30.862Z,12.88
2018-10-17T09:15:30.842Z,12.91
2018-10-17T09:16:30.891Z,12.95
2018-10-17T09:17:30.815Z,12.89
2018-10-17T09:18:30.807Z,12.99
2018-10-17T09:19:31.047Z,12.95
2018-10-17T09:20:30.934Z,13.04
2018-10-17T09:21:30.917Z,13.06
2018-10-17T09:22:30.772Z,13.01
2018-10-17T09:23:30.747Z,12.99
2018-10-17T09:24:30.745Z,13.03
2018-10-17T09:25:30.792Z,13.01
2018-10-17T09:26:30.708Z,12.95
2018-10-17T09:27:30.701Z,12.96
2018-10-17T09:28:30.690Z,12.96
2018-10-17T09:29:30.691Z,12.96
2018-10-17T09:30:30.861Z,13.09
2018-10-17T09:31:30.657Z,13.10
2018-10-17T09:32:30.650Z,13.06
2018-10-17T09:33:30.634Z,13.04
2018-10-17T09:34:30.635Z,13.04
2018-10-17T09:35:30.635Z,13.10
2018-10-17T09:36:30.600Z,13.09
2018-10-17T09:37:30.586Z,13.10
2018-10-17T09:38:30.572Z,13.07
2018-10-17T09:39:30.578Z,13.10
2018-10-17T09:40:30.554Z,13.17
2018-10-17T09:41:30.541Z,13.22
2018-10-17T09:42:30.528Z,13.22
2018-10-17T09:43:30.529Z,13.41
2018-10-17T09:44:30.522Z,13.41
2018-10-17T09:45:30.493Z,13.46
2018-10-17T09:46:30.486Z,13.50
2018-10-17T09:47:30.473Z,13.44
2018-10-17T09:48:30.464Z,13.53
2018-10-17T09:49:30.463Z,13.54
2018-10-17T09:50:30.445Z,13.54
2018-10-17T09:51:30.426Z,13.68
2018-10-17T09:52:30.410Z,13.84
2018-10-17T09:53:30.597Z,13.90
2018-10-17T09:54:30.400Z,13.96
2018-10-17T09:55:30.367Z,14.16
2018-10-17T09:56:30.357Z,14.21
2018-10-17T09:57:30.357Z,14.27
2018-10-17T09:58:30.335Z,14.27
2018-10-17T09:59:30.343Z,14.31
2018-10-17T10:00:30.325Z,14.42
2018-10-17T10:01:30.316Z,14.48
2018-10-17T10:02:30.351Z,14.44
2018-10-17T10:03:30.288Z,14.42
2018-10-17T10:04:30.286Z,14.39
2018-10-17T10:05:30.267Z,14.48
2018-10-17T10:06:30.252Z,14.49
2018-10-17T10:07:30.241Z,14.56
2018-10-17T10:08:30.236Z,14.60
2018-10-17T10:09:30.218Z,14.61
2018-10-17T10:10:30.211Z,14.60
2018-10-17T10:11:30.195Z,14.71
2018-10-17T10:12:30.184Z,14.80
2018-10-17T10:13:30.177Z,14.87
2018-10-17T10:14:30.175Z,15.04
2018-10-17T10:15:30.151Z,15.11
2018-10-17T10:16:30.137Z,15.22
2018-10-17T10:17:30.174Z,15.30
2018-10-17T10:18:30.116Z,15.40
2018-10-17T10:19:30.120Z,15.43
2018-10-17T10:20:30.097Z,15.41
2018-10-17T10:21:30.084Z,15.43
2018-10-17T10:22:30.071Z,15.52
2018-10-17T10:23:30.119Z,15.53
2018-10-17T10:24:30.119Z,15.55
2018-10-17T10:25:30.042Z,15.52
2018-10-17T10:26:30.027Z,15.59
2018-10-17T10:27:30.015Z,15.56
2018-10-17T10:28:30.052Z,15.70
2018-10-17T10:29:30.063Z,15.76
2018-10-17T10:30:29.984Z,15.85
2018-10-17T10:31:29.970Z,15.98
2018-10-17T10:32:29.966Z,16.11
2018-10-17T10:33:29.948Z,16.25
2018-10-17T10:34:29.943Z,16.33
2018-10-17T10:35:29.925Z,16.45
2018-10-17T10:36:29.917Z,16.52
2018-10-17T10:37:29.903Z,16.51
2018-10-17T10:38:29.894Z,16.55
2018-10-17T10:39:29.896Z,16.51
2018-10-17T10:40:29.936Z,16.55
2018-10-17T10:41:29.861Z,16.51
2018-10-17T10:42:29.845Z,16.54
2018-10-17T10:43:29.834Z,16.60
2018-10-17T10:44:29.828Z,16.60
2018-10-17T10:45:29.923Z,16.66
2018-10-17T10:46:29.802Z,16.77
2018-10-17T10:47:29.788Z,16.67
2018-10-17T10:48:29.778Z,16.66
2018-10-17T10:49:29.778Z,16.72
2018-10-17T10:50:29.760Z,16.77
2018-10-17T10:51:29.826Z,16.90
2018-10-17T10:52:29.741Z,16.92
2018-10-17T10:53:29.728Z,16.90
2018-10-17T10:54:29.728Z,16.82
2018-10-17T10:55:29.707Z,16.95
2018-10-17T10:56:29.692Z,17.02
2018-10-17T10:57:29.681Z,17.12
2018-10-17T10:58:29.842Z,17.14
2018-10-17T10:59:29.860Z,17.21
2018-10-17T11:00:29.665Z,17.33
2018-10-17T11:01:29.641Z,17.33
2018-10-17T11:02:29.624Z,17.42
2018-10-17T11:03:29.615Z,17.53
2018-10-17T11:04:29.660Z,17.68
2018-10-17T11:05:29.729Z,17.71
2018-10-17T11:06:29.578Z,17.79
2018-10-17T11:07:29.571Z,17.84
2018-10-17T11:08:29.558Z,17.86
2018-10-17T11:09:29.552Z,17.99
2018-10-17T11:10:29.541Z,17.92
2018-10-17T11:11:29.518Z,17.98
2018-10-17T11:12:29.511Z,18.02
2018-10-17T11:13:29.499Z,18.09
2018-10-17T11:14:29.692Z,18.07
2018-10-17T11:15:29.539Z,18.13
2018-10-17T11:16:29.453Z,18.16
2018-10-17T11:17:29.459Z,18.16
2018-10-17T11:18:29.443Z,18.13
2018-10-17T11:19:29.432Z,18.20
2018-10-17T11:20:29.428Z,18.23
2018-10-17T11:21:29.412Z,18.29
2018-10-17T11:22:29.402Z,18.31
2018-10-17T11:23:29.390Z,18.35
2018-10-17T11:24:29.377Z,18.39
2018-10-17T11:25:29.375Z,18.32
2018-10-17T11:26:29.353Z,18.39
2018-10-17T11:27:29.361Z,18.42
2018-10-17T11:28:29.331Z,18.41
2018-10-17T11:29:29.320Z,18.35
2018-10-17T11:30:29.320Z,18.29
2018-10-17T11:31:29.357Z,18.20
2018-10-17T11:32:29.286Z,18.20
2018-10-17T11:33:29.275Z,18.23
2018-10-17T11:34:29.252Z,18.10
2018-10-17T11:35:29.260Z,18.23
2018-10-17T11:36:29.250Z,18.23
2018-10-17T11:37:29.279Z,18.16
2018-10-17T11:38:29.218Z,18.31
2018-10-17T11:39:29.206Z,18.32
2018-10-17T11:40:29.285Z,18.29
2018-10-17T11:41:29.192Z,18.29
2018-10-17T11:42:29.173Z,18.35
2018-10-17T11:43:29.162Z,18.41
2018-10-17T11:44:29.151Z,18.60
2018-10-17T11:45:29.151Z,18.62
2018-10-17T11:46:29.127Z,18.76
2018-10-17T11:47:29.162Z,18.75
2018-10-17T11:48:29.105Z,18.84
2018-10-17T11:49:29.093Z,18.84
2018-10-17T11:50:29.101Z,18.89
2018-10-17T11:51:29.072Z,18.94
2018-10-17T11:52:29.059Z,19.09
2018-10-17T11:53:29.049Z,19.12
2018-10-17T11:54:29.042Z,19.02
2018-10-17T11:55:29.038Z,19.07
2018-10-17T11:56:29.015Z,19.09
2018-10-17T11:57:29.009Z,18.99
2018-10-17T11:58:28.993Z,19.01
2018-10-17T11:59:28.992Z,18.89
2018-10-17T12:00:28.975Z,18.99
2018-10-17T12:01:28.959Z,19.02
2018-10-17T12:02:28.948Z,19.06
2018-10-17T12:03:28.971Z,18.99
2018-10-17T12:04:29.089Z,19.09
2018-10-17T12:05:29.188Z,19.02
2018-10-17T12:06:28.920Z,19.07
2018-10-17T12:07:28.892Z,18.91
2018-10-17T12:08:28.880Z,19.01
2018-10-17T12:09:28.868Z,19.05
2018-10-17T12:10:28.869Z,18.93
2018-10-17T12:11:28.941Z,18.94
2018-10-17T12:12:28.873Z,18.90
2018-10-17T12:13:28.823Z,18.84
2018-10-17T12:14:28.813Z,18.90
2018-10-17T12:15:28.816Z,18.83
2018-10-17T12:16:28.846Z,18.84
2018-10-17T12:17:28.777Z,18.74
2018-10-17T12:18:28.766Z,18.74
2018-10-17T12:19:28.764Z,18.74
2018-10-17T12:20:28.756Z,18.72
2018-10-17T12:21:28.821Z,18.65
2018-10-17T12:22:28.721Z,18.76
2018-10-17T12:23:28.711Z,18.71
2018-10-17T12:24:28.700Z,18.75
2018-10-17T12:25:28.695Z,18.71
2018-10-17T12:26:28.675Z,18.72
2018-10-17T12:27:28.671Z,18.69
2018-10-17T12:28:28.732Z,18.76
2018-10-17T12:29:28.642Z,18.69
2018-10-17T12:30:28.639Z,18.66
2018-10-17T12:31:28.624Z,18.59
2018-10-17T12:32:28.611Z,18.64
2018-10-17T12:33:28.597Z,18.57
2018-10-17T12:34:28.586Z,18.62
2018-10-17T12:35:28.582Z,18.53
2018-10-17T12:36:28.568Z,18.46
2018-10-17T12:37:28.552Z,18.44
2018-10-17T12:38:28.544Z,18.39
2018-10-17T12:39:28.639Z,18.44
2018-10-17T12:40:28.674Z,18.34
2018-10-17T12:41:28.577Z,18.38
2018-10-17T12:42:28.500Z,18.36
2018-10-17T12:43:28.486Z,18.29
2018-10-17T12:44:28.477Z,18.26
2018-10-17T12:45:28.512Z,18.26
2018-10-17T12:46:28.453Z,18.23
2018-10-17T12:47:28.440Z,18.20
2018-10-17T12:48:28.427Z,18.32
2018-10-17T12:49:28.417Z,18.28
2018-10-17T12:50:28.448Z,18.50
2018-10-17T12:51:28.393Z,18.60
2018-10-17T12:52:28.406Z,18.66
2018-10-17T12:53:28.503Z,18.65
2018-10-17T12:54:28.359Z,18.64
2018-10-17T12:55:28.418Z,18.59
2018-10-17T12:56:28.337Z,18.64
2018-10-17T12:57:28.325Z,18.64
2018-10-17T12:58:28.315Z,18.72
2018-10-17T12:59:28.303Z,18.62
2018-10-17T13:00:28.334Z,18.74
2018-10-17T13:01:28.290Z,18.79
2018-10-17T13:02:28.636Z,18.66
2018-10-17T13:03:28.259Z,18.74
2018-10-17T13:04:28.263Z,18.65
2018-10-17T13:05:28.263Z,18.56
2018-10-17T13:06:28.232Z,18.59
2018-10-17T13:07:28.213Z,18.47
2018-10-17T13:08:28.202Z,18.53
2018-10-17T13:09:28.312Z,18.59
2018-10-17T13:10:28.179Z,18.51
2018-10-17T13:11:28.261Z,18.56
2018-10-17T13:12:28.157Z,18.49
2018-10-17T13:13:28.205Z,18.53
2018-10-17T13:14:28.137Z,18.59
2018-10-17T13:15:28.127Z,18.68
2018-10-17T13:16:28.117Z,18.72
2018-10-17T13:17:28.310Z,18.82
2018-10-17T13:18:28.089Z,18.82
2018-10-17T13:19:28.111Z,18.91
2018-10-17T13:20:28.224Z,18.90
2018-10-17T13:21:28.064Z,18.99
2018-10-17T13:22:28.043Z,19.07
2018-10-17T13:23:28.033Z,19.12
2018-10-17T13:24:28.040Z,19.27
2018-10-17T13:25:28.011Z,19.27
2018-10-17T13:26:28.012Z,19.38
2018-10-17T13:27:27.987Z,19.43
2018-10-17T13:28:28.001Z,19.50
2018-10-17T13:29:27.956Z,19.42
2018-10-17T13:30:27.954Z,19.52
2018-10-17T13:31:27.950Z,19.55
2018-10-17T13:32:27.931Z,19.52
2018-10-17T13:33:27.924Z,19.67
2018-10-17T13:34:27.909Z,19.70
2018-10-17T13:35:27.902Z,19.64
2018-10-17T13:36:27.899Z,19.67
2018-10-17T13:37:27.874Z,19.68
2018-10-17T13:38:27.864Z,19.71
2018-10-17T13:39:27.852Z,19.72
2018-10-17T13:40:27.840Z,19.55
2018-10-17T13:41:27.841Z,19.70
2018-10-17T13:42:27.818Z,19.64
2018-10-17T13:43:27.812Z,19.67
2018-10-17T13:44:27.800Z,19.71
2018-10-17T13:45:27.785Z,19.75
2018-10-17T13:46:27.781Z,19.75
2018-10-17T13:47:27.770Z,19.76
2018-10-17T13:48:27.750Z,19.65
2018-10-17T13:49:27.842Z,19.68
2018-10-17T13:50:27.730Z,19.60
2018-10-17T13:51:27.728Z,19.68
2018-10-17T13:52:27.710Z,19.67
2018-10-17T13:53:27.693Z,19.58
2018-10-17T13:54:27.719Z,19.60
2018-10-17T13:55:27.672Z,19.47
2018-10-17T13:56:27.669Z,19.52
2018-10-17T13:57:27.651Z,19.45
2018-10-17T13:58:27.718Z,19.42
2018-10-17T13:59:27.654Z,19.39
2018-10-17T14:00:27.613Z,19.39
2018-10-17T14:01:27.612Z,19.43
2018-10-17T14:02:27.593Z,19.46
2018-10-17T14:03:27.584Z,19.43
2018-10-17T14:04:27.576Z,19.43
2018-10-17T14:05:27.559Z,19.35
2018-10-17T14:06:27.556Z,19.24
2018-10-17T14:07:27.537Z,19.31
2018-10-17T14:08:27.524Z,19.32
2018-10-17T14:09:27.511Z,19.27
2018-10-17T14:10:27.498Z,19.12
2018-10-17T14:11:27.547Z,19.15
2018-10-17T14:12:27.477Z,19.07
2018-10-17T14:13:27.519Z,19.15
2018-10-17T14:14:27.454Z,19.01
2018-10-17T14:15:27.452Z,19.01
2018-10-17T14:16:27.444Z,19.05
2018-10-17T14:17:27.420Z,18.91
2018-10-17T14:18:27.409Z,18.90
2018-10-17T14:19:27.398Z,18.99
2018-10-17T14:20:27.386Z,18.91
2018-10-17T14:21:27.391Z,18.86
2018-10-17T14:22:27.364Z,18.96
2018-10-17T14:23:27.492Z,18.91
2018-10-17T14:24:27.341Z,18.83
2018-10-17T14:25:27.330Z,18.78
2018-10-17T14:26:27.345Z,18.72
2018-10-17T14:27:27.308Z,18.75
2018-10-17T14:28:27.296Z,18.69
2018-10-17T14:29:27.318Z,18.79
2018-10-17T14:30:27.277Z,18.60
2018-10-17T14:31:27.273Z,18.69
2018-10-17T14:32:27.251Z,18.64
2018-10-17T14:33:27.238Z,18.59
2018-10-17T14:34:27.229Z,18.66
2018-10-17T14:35:27.217Z,18.59
2018-10-17T14:36:27.327Z,18.53
2018-10-17T14:37:27.240Z,18.57
2018-10-17T14:38:27.184Z,18.56
2018-10-17T14:39:27.341Z,18.49
2018-10-17T14:40:27.159Z,18.59
2018-10-17T14:41:27.162Z,18.49
2018-10-17T14:42:27.125Z,18.36
2018-10-17T14:43:27.156Z,18.25
2018-10-17T14:44:27.116Z,18.11
2018-10-17T14:45:27.104Z,18.05
2018-10-17T14:46:27.105Z,17.89
2018-10-17T14:47:27.089Z,17.86
2018-10-17T14:48:27.074Z,17.81
2018-10-17T14:49:27.058Z,17.65
2018-10-17T14:50:27.048Z,17.54
2018-10-17T14:51:27.047Z,17.54
2018-10-17T14:52:27.024Z,17.39
2018-10-17T14:53:27.014Z,17.28
2018-10-17T14:54:27.001Z,17.32
2018-10-17T14:55:27.002Z,17.20
2018-10-17T14:56:26.991Z,17.15
2018-10-17T14:57:26.968Z,17.05
2018-10-17T14:58:26.957Z,16.95
2018-10-17T14:59:26.946Z,16.99
2018-10-17T15:00:26.940Z,16.98
2018-10-17T15:01:26.936Z,16.90
2018-10-17T15:02:26.913Z,16.85
2018-10-17T15:03:26.904Z,16.87
2018-10-17T15:04:26.891Z,16.82
2018-10-17T15:05:26.873Z,16.70
2018-10-17T15:06:26.880Z,16.67
2018-10-17T15:07:26.857Z,16.67
2018-10-17T15:08:26.845Z,16.59
2018-10-17T15:09:26.832Z,16.54
2018-10-17T15:10:26.849Z,16.62
2018-10-17T15:11:26.888Z,16.60
2018-10-17T15:12:26.814Z,16.55
2018-10-17T15:13:26.790Z,16.51
2018-10-17T15:14:26.777Z,16.50
2018-10-17T15:15:26.764Z,16.50
2018-10-17T15:16:26.750Z,16.45
2018-10-17T15:17:26.773Z,16.40
2018-10-17T15:18:26.731Z,16.27
2018-10-17T15:19:26.721Z,16.33
2018-10-17T15:20:26.709Z,16.26
2018-10-17T15:21:26.700Z,16.29
2018-10-17T15:22:26.697Z,16.29
2018-10-17T15:23:26.681Z,16.22
2018-10-17T15:24:26.767Z,16.23
2018-10-17T15:25:26.651Z,16.17
2018-10-17T15:26:26.641Z,16.22
2018-10-17T15:27:26.643Z,16.10
2018-10-17T15:28:26.618Z,16.14
2018-10-17T15:29:26.616Z,16.16
2018-10-17T15:30:26.596Z,16.11
2018-10-17T15:31:26.744Z,16.04
2018-10-17T15:32:26.585Z,16.06
2018-10-17T15:33:26.569Z,16.01
2018-10-17T15:34:26.551Z,15.96
2018-10-17T15:35:26.540Z,15.93
2018-10-17T15:36:26.530Z,15.89
2018-10-17T15:37:26.530Z,15.84
2018-10-17T15:38:26.505Z,15.86
2018-10-17T15:39:26.491Z,15.73
2018-10-17T15:40:26.484Z,15.80
2018-10-17T15:41:26.472Z,15.80
2018-10-17T15:42:26.472Z,15.71
2018-10-17T15:43:26.584Z,15.67
2018-10-17T15:44:26.437Z,15.55
2018-10-17T15:45:26.426Z,15.62
2018-10-17T15:46:26.414Z,15.52
2018-10-17T15:47:26.416Z,15.49
2018-10-17T15:48:26.392Z,15.44
2018-10-17T15:49:26.381Z,15.38
2018-10-17T15:50:26.370Z,15.43
2018-10-17T15:51:26.361Z,15.41
2018-10-17T15:52:26.359Z,15.40
2018-10-17T15:53:26.396Z,15.43
2018-10-17T15:54:26.325Z,15.28
2018-10-17T15:55:26.313Z,15.28
2018-10-17T15:56:26.297Z,15.28
2018-10-17T15:57:26.304Z,15.25
2018-10-17T15:58:26.271Z,15.28
2018-10-17T15:59:26.269Z,15.11
2018-10-17T16:00:26.269Z,15.23
2018-10-17T16:01:26.248Z,15.12
2018-10-17T16:02:26.319Z,15.07
2018-10-17T16:03:26.228Z,15.07
2018-10-17T16:04:26.205Z,14.98
2018-10-17T16:05:26.201Z,14.91
2018-10-17T16:06:26.191Z,14.91
2018-10-17T16:07:26.206Z,14.86
2018-10-17T16:08:26.167Z,14.82
2018-10-17T16:09:26.155Z,14.71
2018-10-17T16:10:26.152Z,14.61
2018-10-17T16:11:26.183Z,14.59
2018-10-17T16:12:26.141Z,14.54
2018-10-17T16:13:26.111Z,14.56
2018-10-17T16:14:26.099Z,14.48
2018-10-17T16:15:26.088Z,14.42
2018-10-17T16:16:26.091Z,14.30
2018-10-17T16:17:26.081Z,14.35
2018-10-17T16:18:26.055Z,14.31
2018-10-17T16:19:26.043Z,14.29
2018-10-17T16:20:26.032Z,14.21